sensor_id;sensor_type;location;lat;lon;timestamp;P1;durP1;ratioP1;P2;durP2;ratioP2
75216;SDS011;63800;51.972;5.682;2022-10-26T00:02:07;9.45;;;4.60;;
75216;SDS011;63800;51.972;5.682;2022-10-26T00:04:32;10.32;;;4.22;;
75216;SDS011;63800;51.972;5.682;2022-10-26T00:06:58;8.73;;;4.40;;
75216;SDS011;63800;51.972;5.682;2022-10-26T00:09:23;6.43;;;4.38;;
75216;SDS011;63800;51.972;5.682;2022-10-26T00:11:49;7.50;;;4.95;;
75216;SDS011;63800;51.972;5.682;2022-10-26T00:14:15;6.78;;;4.22;;
75216;SDS011;63800;51.972;5.682;2022-10-26T00:16:41;5.35;;;3.92;;
75216;SDS011;63800;51.972;5.682;2022-10-26T00:19:06;10.63;;;4.72;;
75216;SDS011;63800;51.972;5.682;2022-10-26T00:21:32;9.52;;;4.65;;
75216;SDS011;63800;51.972;5.682;2022-10-26T00:23:58;7.20;;;4.80;;
75216;SDS011;63800;51.972;5.682;2022-10-26T00:26:24;8.20;;;4.03;;
75216;SDS011;63800;51.972;5.682;2022-10-26T00:28:51;8.60;;;4.90;;
75216;SDS011;63800;51.972;5.682;2022-10-26T00:31:18;8.48;;;5.30;;
75216;SDS011;63800;51.972;5.682;2022-10-26T00:33:43;7.75;;;4.63;;
75216;SDS011;63800;51.972;5.682;2022-10-26T00:36:09;10.52;;;4.90;;
75216;SDS011;63800;51.972;5.682;2022-10-26T00:38:37;9.40;;;5.63;;
75216;SDS011;63800;51.972;5.682;2022-10-26T00:41:03;10.02;;;5.05;;
75216;SDS011;63800;51.972;5.682;2022-10-26T00:45:54;17.90;;;6.43;;
75216;SDS011;63800;51.972;5.682;2022-10-26T00:48:26;8.27;;;5.95;;
75216;SDS011;63800;51.972;5.682;2022-10-26T00:50:54;10.80;;;6.05;;
75216;SDS011;63800;51.972;5.682;2022-10-26T00:53:22;9.18;;;5.72;;
75216;SDS011;63800;51.972;5.682;2022-10-26T00:55:48;8.85;;;5.85;;
75216;SDS011;63800;51.972;5.682;2022-10-26T00:58:16;12.82;;;5.55;;
75216;SDS011;63800;51.972;5.682;2022-10-26T01:00:42;9.63;;;5.57;;
75216;SDS011;63800;51.972;5.682;2022-10-26T01:03:08;9.85;;;6.70;;
75216;SDS011;63800;51.972;5.682;2022-10-26T01:05:35;11.50;;;6.35;;
75216;SDS011;63800;51.972;5.682;2022-10-26T01:08:04;10.35;;;6.18;;
75216;SDS011;63800;51.972;5.682;2022-10-26T01:10:30;9.48;;;6.10;;
75216;SDS011;63800;51.972;5.682;2022-10-26T01:12:56;10.38;;;6.47;;
75216;SDS011;63800;51.972;5.682;2022-10-26T01:15:26;9.98;;;6.05;;
75216;SDS011;63800;51.972;5.682;2022-10-26T01:18:46;8.32;;;5.68;;
75216;SDS011;63800;51.972;5.682;2022-10-26T01:34:33;11.32;;;6.25;;
75216;SDS011;63800;51.972;5.682;2022-10-26T01:37:09;8.38;;;5.90;;
75216;SDS011;63800;51.972;5.682;2022-10-26T01:39:44;13.98;;;7.40;;
75216;SDS011;63800;51.972;5.682;2022-10-26T01:42:15;11.25;;;6.45;;
75216;SDS011;63800;51.972;5.682;2022-10-26T01:44:44;9.85;;;6.20;;
75216;SDS011;63800;51.972;5.682;2022-10-26T01:47:14;9.20;;;6.00;;
75216;SDS011;63800;51.972;5.682;2022-10-26T01:49:42;9.27;;;5.97;;
75216;SDS011;63800;51.972;5.682;2022-10-26T01:52:11;10.80;;;6.28;;
75216;SDS011;63800;51.972;5.682;2022-10-26T01:54:37;11.73;;;5.82;;
75216;SDS011;63800;51.972;5.682;2022-10-26T01:57:09;10.68;;;6.32;;
75216;SDS011;63800;51.972;5.682;2022-10-26T02:08:26;8.82;;;6.00;;
75216;SDS011;63800;51.972;5.682;2022-10-26T02:11:16;9.98;;;6.40;;
75216;SDS011;63800;51.972;5.682;2022-10-26T02:14:02;9.23;;;6.07;;
75216;SDS011;63800;51.972;5.682;2022-10-26T02:19:28;11.40;;;5.82;;
75216;SDS011;63800;51.972;5.682;2022-10-26T02:22:00;13.45;;;5.65;;
75216;SDS011;63800;51.972;5.682;2022-10-26T02:24:31;9.75;;;5.82;;
75216;SDS011;63800;51.972;5.682;2022-10-26T02:26:58;9.55;;;6.00;;
75216;SDS011;63800;51.972;5.682;2022-10-26T02:29:26;10.32;;;5.78;;
75216;SDS011;63800;51.972;5.682;2022-10-26T02:31:53;9.32;;;5.72;;
75216;SDS011;63800;51.972;5.682;2022-10-26T02:34:21;10.98;;;5.63;;
75216;SDS011;63800;51.972;5.682;2022-10-26T02:36:49;9.38;;;5.88;;
75216;SDS011;63800;51.972;5.682;2022-10-26T02:39:17;10.68;;;6.00;;
75216;SDS011;63800;51.972;5.682;2022-10-26T02:41:44;10.48;;;5.47;;
75216;SDS011;63800;51.972;5.682;2022-10-26T02:44:24;9.50;;;5.53;;
75216;SDS011;63800;51.972;5.682;2022-10-26T02:46:53;10.00;;;4.97;;
75216;SDS011;63800;51.972;5.682;2022-10-26T02:49:19;13.43;;;6.18;;
75216;SDS011;63800;51.972;5.682;2022-10-26T02:54:15;11.48;;;5.72;;
75216;SDS011;63800;51.972;5.682;2022-10-26T02:56:53;8.80;;;5.25;;
75216;SDS011;63800;51.972;5.682;2022-10-26T02:59:25;9.65;;;5.75;;
75216;SDS011;63800;51.972;5.682;2022-10-26T03:01:54;7.95;;;5.63;;
75216;SDS011;63800;51.972;5.682;2022-10-26T03:04:26;10.18;;;5.35;;
75216;SDS011;63800;51.972;5.682;2022-10-26T03:06:53;11.40;;;5.80;;
75216;SDS011;63800;51.972;5.682;2022-10-26T03:09:19;13.25;;;6.00;;
75216;SDS011;63800;51.972;5.682;2022-10-26T03:11:45;8.60;;;5.50;;
75216;SDS011;63800;51.972;5.682;2022-10-26T03:14:10;8.07;;;5.40;;
75216;SDS011;63800;51.972;5.682;2022-10-26T03:16:35;9.77;;;5.10;;
75216;SDS011;63800;51.972;5.682;2022-10-26T03:19:01;11.32;;;6.10;;
75216;SDS011;63800;51.972;5.682;2022-10-26T03:21:26;9.77;;;6.35;;
75216;SDS011;63800;51.972;5.682;2022-10-26T03:23:52;7.28;;;5.28;;
75216;SDS011;63800;51.972;5.682;2022-10-26T03:26:18;10.73;;;5.95;;
75216;SDS011;63800;51.972;5.682;2022-10-26T03:28:43;11.27;;;5.70;;
75216;SDS011;63800;51.972;5.682;2022-10-26T03:31:09;12.63;;;6.45;;
75216;SDS011;63800;51.972;5.682;2022-10-26T03:33:34;10.57;;;6.20;;
75216;SDS011;63800;51.972;5.682;2022-10-26T03:36:00;12.05;;;5.93;;
75216;SDS011;63800;51.972;5.682;2022-10-26T03:38:25;10.73;;;5.90;;
75216;SDS011;63800;51.972;5.682;2022-10-26T03:40:50;11.07;;;5.78;;
75216;SDS011;63800;51.972;5.682;2022-10-26T03:43:16;10.15;;;6.55;;
75216;SDS011;63800;51.972;5.682;2022-10-26T03:45:41;7.50;;;5.93;;
75216;SDS011;63800;51.972;5.682;2022-10-26T03:48:07;12.05;;;5.90;;
75216;SDS011;63800;51.972;5.682;2022-10-26T03:50:32;10.13;;;6.30;;
75216;SDS011;63800;51.972;5.682;2022-10-26T03:52:58;11.90;;;5.57;;
75216;SDS011;63800;51.972;5.682;2022-10-26T03:55:23;9.88;;;6.25;;
75216;SDS011;63800;51.972;5.682;2022-10-26T03:57:48;11.80;;;6.53;;
75216;SDS011;63800;51.972;5.682;2022-10-26T04:00:15;12.02;;;5.22;;
75216;SDS011;63800;51.972;5.682;2022-10-26T04:02:42;9.85;;;6.47;;
75216;SDS011;63800;51.972;5.682;2022-10-26T04:05:10;10.40;;;6.00;;
75216;SDS011;63800;51.972;5.682;2022-10-26T04:07:36;10.85;;;6.28;;
75216;SDS011;63800;51.972;5.682;2022-10-26T04:10:02;10.23;;;5.68;;
75216;SDS011;63800;51.972;5.682;2022-10-26T04:12:29;9.18;;;5.60;;
75216;SDS011;63800;51.972;5.682;2022-10-26T04:14:54;11.57;;;5.97;;
75216;SDS011;63800;51.972;5.682;2022-10-26T04:17:22;9.68;;;6.15;;
75216;SDS011;63800;51.972;5.682;2022-10-26T04:19:48;9.23;;;5.40;;
75216;SDS011;63800;51.972;5.682;2022-10-26T04:22:13;11.98;;;5.80;;
75216;SDS011;63800;51.972;5.682;2022-10-26T04:24:38;9.88;;;5.95;;
75216;SDS011;63800;51.972;5.682;2022-10-26T04:27:04;12.77;;;6.38;;
75216;SDS011;63800;51.972;5.682;2022-10-26T04:29:29;11.63;;;6.50;;
75216;SDS011;63800;51.972;5.682;2022-10-26T04:31:55;11.65;;;6.20;;
75216;SDS011;63800;51.972;5.682;2022-10-26T04:34:20;9.38;;;5.85;;
75216;SDS011;63800;51.972;5.682;2022-10-26T04:36:45;11.32;;;6.10;;
75216;SDS011;63800;51.972;5.682;2022-10-26T04:39:11;12.23;;;6.85;;
75216;SDS011;63800;51.972;5.682;2022-10-26T04:41:36;12.73;;;6.63;;
75216;SDS011;63800;51.972;5.682;2022-10-26T04:44:02;9.32;;;6.25;;
75216;SDS011;63800;51.972;5.682;2022-10-26T04:46:27;9.88;;;6.07;;
75216;SDS011;63800;51.972;5.682;2022-10-26T04:48:52;11.82;;;6.68;;
75216;SDS011;63800;51.972;5.682;2022-10-26T04:51:18;10.07;;;6.15;;
75216;SDS011;63800;51.972;5.682;2022-10-26T04:53:43;10.45;;;5.95;;
75216;SDS011;63800;51.972;5.682;2022-10-26T04:56:09;9.93;;;5.70;;
75216;SDS011;63800;51.972;5.682;2022-10-26T04:58:34;10.82;;;6.53;;
75216;SDS011;63800;51.972;5.682;2022-10-26T05:01:00;13.60;;;5.85;;
75216;SDS011;63800;51.972;5.682;2022-10-26T05:03:26;12.65;;;6.30;;
75216;SDS011;63800;51.972;5.682;2022-10-26T05:05:52;9.52;;;6.03;;
75216;SDS011;63800;51.972;5.682;2022-10-26T05:08:17;10.07;;;6.07;;
75216;SDS011;63800;51.972;5.682;2022-10-26T05:10:46;11.52;;;6.13;;
75216;SDS011;63800;51.972;5.682;2022-10-26T05:13:13;10.00;;;5.75;;
75216;SDS011;63800;51.972;5.682;2022-10-26T05:15:39;9.23;;;5.78;;
75216;SDS011;63800;51.972;5.682;2022-10-26T05:18:04;11.07;;;5.88;;
75216;SDS011;63800;51.972;5.682;2022-10-26T05:20:31;8.50;;;5.93;;
75216;SDS011;63800;51.972;5.682;2022-10-26T05:23:02;9.25;;;5.70;;
75216;SDS011;63800;51.972;5.682;2022-10-26T05:25:30;10.13;;;5.78;;
75216;SDS011;63800;51.972;5.682;2022-10-26T05:27:58;8.75;;;4.82;;
75216;SDS011;63800;51.972;5.682;2022-10-26T05:30:25;8.73;;;5.40;;
75216;SDS011;63800;51.972;5.682;2022-10-26T05:32:58;9.13;;;5.80;;
75216;SDS011;63800;51.972;5.682;2022-10-26T05:35:25;9.20;;;5.28;;
75216;SDS011;63800;51.972;5.682;2022-10-26T05:37:51;8.20;;;5.45;;
75216;SDS011;63800;51.972;5.682;2022-10-26T05:40:17;9.65;;;5.47;;
75216;SDS011;63800;51.972;5.682;2022-10-26T05:42:43;10.85;;;5.95;;
75216;SDS011;63800;51.972;5.682;2022-10-26T05:45:09;14.10;;;6.00;;
75216;SDS011;63800;51.972;5.682;2022-10-26T05:47:41;12.48;;;6.10;;
75216;SDS011;63800;51.972;5.682;2022-10-26T05:50:08;11.18;;;6.00;;
75216;SDS011;63800;51.972;5.682;2022-10-26T05:52:38;9.57;;;6.13;;
75216;SDS011;63800;51.972;5.682;2022-10-26T05:55:05;11.88;;;5.13;;
75216;SDS011;63800;51.972;5.682;2022-10-26T05:57:32;12.00;;;5.00;;
75216;SDS011;63800;51.972;5.682;2022-10-26T05:59:57;10.70;;;5.40;;
75216;SDS011;63800;51.972;5.682;2022-10-26T06:05:06;10.30;;;4.97;;
75216;SDS011;63800;51.972;5.682;2022-10-26T06:07:35;8.98;;;5.32;;
75216;SDS011;63800;51.972;5.682;2022-10-26T06:10:01;8.27;;;5.30;;
75216;SDS011;63800;51.972;5.682;2022-10-26T06:12:26;9.88;;;5.13;;
75216;SDS011;63800;51.972;5.682;2022-10-26T06:14:52;11.13;;;5.43;;
75216;SDS011;63800;51.972;5.682;2022-10-26T06:17:22;10.50;;;5.20;;
75216;SDS011;63800;51.972;5.682;2022-10-26T06:22:50;8.88;;;5.38;;
75216;SDS011;63800;51.972;5.682;2022-10-26T06:31:12;7.53;;;5.70;;
75216;SDS011;63800;51.972;5.682;2022-10-26T06:33:38;8.63;;;5.25;;
75216;SDS011;63800;51.972;5.682;2022-10-26T06:38:33;9.98;;;4.75;;
75216;SDS011;63800;51.972;5.682;2022-10-26T06:40:59;13.65;;;5.75;;
75216;SDS011;63800;51.972;5.682;2022-10-26T06:43:26;8.27;;;5.10;;
75216;SDS011;63800;51.972;5.682;2022-10-26T06:51:54;10.02;;;4.85;;
75216;SDS011;63800;51.972;5.682;2022-10-26T06:54:57;8.68;;;4.97;;
75216;SDS011;63800;51.972;5.682;2022-10-26T06:57:23;10.00;;;5.35;;
75216;SDS011;63800;51.972;5.682;2022-10-26T06:59:57;9.30;;;4.70;;
75216;SDS011;63800;51.972;5.682;2022-10-26T07:02:25;8.82;;;4.28;;
75216;SDS011;63800;51.972;5.682;2022-10-26T07:04:51;9.65;;;5.00;;
75216;SDS011;63800;51.972;5.682;2022-10-26T07:07:20;8.70;;;4.68;;
75216;SDS011;63800;51.972;5.682;2022-10-26T07:09:48;7.22;;;4.90;;
75216;SDS011;63800;51.972;5.682;2022-10-26T07:12:14;6.30;;;4.85;;
75216;SDS011;63800;51.972;5.682;2022-10-26T07:14:39;7.25;;;4.78;;
75216;SDS011;63800;51.972;5.682;2022-10-26T07:17:05;6.20;;;4.57;;
75216;SDS011;63800;51.972;5.682;2022-10-26T07:19:31;6.05;;;4.22;;
75216;SDS011;63800;51.972;5.682;2022-10-26T07:21:56;6.65;;;4.55;;
75216;SDS011;63800;51.972;5.682;2022-10-26T07:24:25;8.38;;;4.68;;
75216;SDS011;63800;51.972;5.682;2022-10-26T07:26:54;6.75;;;4.50;;
75216;SDS011;63800;51.972;5.682;2022-10-26T07:29:21;7.15;;;4.22;;
75216;SDS011;63800;51.972;5.682;2022-10-26T07:31:47;8.05;;;3.78;;
75216;SDS011;63800;51.972;5.682;2022-10-26T07:34:12;9.40;;;3.97;;
75216;SDS011;63800;51.972;5.682;2022-10-26T07:36:38;5.95;;;3.58;;
75216;SDS011;63800;51.972;5.682;2022-10-26T07:39:03;4.80;;;3.70;;
75216;SDS011;63800;51.972;5.682;2022-10-26T07:41:29;5.90;;;4.15;;
75216;SDS011;63800;51.972;5.682;2022-10-26T07:43:55;7.43;;;3.80;;
75216;SDS011;63800;51.972;5.682;2022-10-26T07:46:20;7.90;;;3.75;;
75216;SDS011;63800;51.972;5.682;2022-10-26T07:48:45;5.43;;;3.75;;
75216;SDS011;63800;51.972;5.682;2022-10-26T07:51:11;4.88;;;3.42;;
75216;SDS011;63800;51.972;5.682;2022-10-26T07:53:37;7.63;;;3.80;;
75216;SDS011;63800;51.972;5.682;2022-10-26T07:56:02;7.50;;;3.50;;
75216;SDS011;63800;51.972;5.682;2022-10-26T07:58:28;8.73;;;4.13;;
75216;SDS011;63800;51.972;5.682;2022-10-26T08:00:53;6.80;;;3.60;;
75216;SDS011;63800;51.972;5.682;2022-10-26T08:03:19;6.90;;;3.65;;
75216;SDS011;63800;51.972;5.682;2022-10-26T08:05:45;7.78;;;3.72;;
75216;SDS011;63800;51.972;5.682;2022-10-26T08:08:15;5.80;;;3.50;;
75216;SDS011;63800;51.972;5.682;2022-10-26T08:10:43;6.10;;;3.80;;
75216;SDS011;63800;51.972;5.682;2022-10-26T08:13:10;8.98;;;4.10;;
75216;SDS011;63800;51.972;5.682;2022-10-26T08:15:35;11.43;;;4.80;;
75216;SDS011;63800;51.972;5.682;2022-10-26T08:18:01;10.18;;;4.80;;
75216;SDS011;63800;51.972;5.682;2022-10-26T08:20:26;5.10;;;3.88;;
75216;SDS011;63800;51.972;5.682;2022-10-26T08:22:51;8.38;;;4.60;;
75216;SDS011;63800;51.972;5.682;2022-10-26T08:25:20;8.07;;;4.38;;
75216;SDS011;63800;51.972;5.682;2022-10-26T08:27:45;6.78;;;4.10;;
75216;SDS011;63800;51.972;5.682;2022-10-26T08:30:11;7.70;;;3.95;;
75216;SDS011;63800;51.972;5.682;2022-10-26T08:32:36;5.43;;;3.70;;
75216;SDS011;63800;51.972;5.682;2022-10-26T08:35:02;6.88;;;4.00;;
75216;SDS011;63800;51.972;5.682;2022-10-26T08:37:27;11.48;;;4.35;;
75216;SDS011;63800;51.972;5.682;2022-10-26T08:39:53;6.20;;;3.90;;
75216;SDS011;63800;51.972;5.682;2022-10-26T08:42:21;9.35;;;5.10;;
75216;SDS011;63800;51.972;5.682;2022-10-26T08:44:56;6.65;;;3.78;;
75216;SDS011;63800;51.972;5.682;2022-10-26T08:47:30;6.53;;;4.13;;
75216;SDS011;63800;51.972;5.682;2022-10-26T08:50:09;6.85;;;3.65;;
75216;SDS011;63800;51.972;5.682;2022-10-26T08:52:55;5.70;;;3.97;;
75216;SDS011;63800;51.972;5.682;2022-10-26T08:55:50;9.98;;;4.25;;
75216;SDS011;63800;51.972;5.682;2022-10-26T08:58:20;4.80;;;3.90;;
75216;SDS011;63800;51.972;5.682;2022-10-26T09:00:50;6.70;;;4.05;;
75216;SDS011;63800;51.972;5.682;2022-10-26T09:03:16;8.55;;;4.28;;
75216;SDS011;63800;51.972;5.682;2022-10-26T09:14:09;7.53;;;4.82;;
75216;SDS011;63800;51.972;5.682;2022-10-26T09:16:58;8.90;;;5.15;;
75216;SDS011;63800;51.972;5.682;2022-10-26T09:25:18;8.35;;;5.13;;
75216;SDS011;63800;51.972;5.682;2022-10-26T09:27:46;8.38;;;4.70;;
75216;SDS011;63800;51.972;5.682;2022-10-26T09:30:19;8.35;;;4.72;;
75216;SDS011;63800;51.972;5.682;2022-10-26T09:32:46;5.53;;;3.67;;
75216;SDS011;63800;51.972;5.682;2022-10-26T09:37:49;8.40;;;4.55;;
75216;SDS011;63800;51.972;5.682;2022-10-26T09:43:09;7.28;;;4.10;;
75216;SDS011;63800;51.972;5.682;2022-10-26T09:45:41;8.90;;;4.22;;
75216;SDS011;63800;51.972;5.682;2022-10-26T09:48:15;9.02;;;4.38;;
75216;SDS011;63800;51.972;5.682;2022-10-26T09:50:47;6.75;;;4.32;;
75216;SDS011;63800;51.972;5.682;2022-10-26T09:53:13;7.60;;;4.30;;
75216;SDS011;63800;51.972;5.682;2022-10-26T09:55:40;8.85;;;4.55;;
75216;SDS011;63800;51.972;5.682;2022-10-26T09:58:12;9.30;;;4.13;;
75216;SDS011;63800;51.972;5.682;2022-10-26T10:00:41;7.70;;;4.53;;
75216;SDS011;63800;51.972;5.682;2022-10-26T10:05:44;10.45;;;4.68;;
75216;SDS011;63800;51.972;5.682;2022-10-26T10:08:14;11.27;;;5.30;;
75216;SDS011;63800;51.972;5.682;2022-10-26T10:13:45;9.02;;;4.70;;
75216;SDS011;63800;51.972;5.682;2022-10-26T10:18:53;6.88;;;4.22;;
75216;SDS011;63800;51.972;5.682;2022-10-26T10:21:21;7.20;;;4.60;;
75216;SDS011;63800;51.972;5.682;2022-10-26T10:26:59;6.68;;;4.50;;
75216;SDS011;63800;51.972;5.682;2022-10-26T10:29:29;7.32;;;4.45;;
75216;SDS011;63800;51.972;5.682;2022-10-26T10:31:59;8.93;;;3.92;;
75216;SDS011;63800;51.972;5.682;2022-10-26T10:34:28;10.10;;;4.13;;
75216;SDS011;63800;51.972;5.682;2022-10-26T10:36:55;6.07;;;4.03;;
75216;SDS011;63800;51.972;5.682;2022-10-26T10:39:34;9.75;;;4.10;;
75216;SDS011;63800;51.972;5.682;2022-10-26T10:42:29;8.38;;;4.63;;
75216;SDS011;63800;51.972;5.682;2022-10-26T10:44:54;7.68;;;4.35;;
75216;SDS011;63800;51.972;5.682;2022-10-26T10:47:25;8.18;;;4.32;;
75216;SDS011;63800;51.972;5.682;2022-10-26T10:49:58;7.55;;;4.65;;
75216;SDS011;63800;51.972;5.682;2022-10-26T10:52:33;7.65;;;4.00;;
75216;SDS011;63800;51.972;5.682;2022-10-26T10:55:07;8.13;;;4.28;;
75216;SDS011;63800;51.972;5.682;2022-10-26T11:00:28;6.65;;;4.22;;
75216;SDS011;63800;51.972;5.682;2022-10-26T11:10:25;9.80;;;3.85;;
75216;SDS011;63800;51.972;5.682;2022-10-26T11:12:56;7.93;;;3.50;;
75216;SDS011;63800;51.972;5.682;2022-10-26T11:15:25;10.30;;;3.63;;
75216;SDS011;63800;51.972;5.682;2022-10-26T11:20:37;8.40;;;3.75;;
75216;SDS011;63800;51.972;5.682;2022-10-26T11:25:49;6.70;;;3.60;;
75216;SDS011;63800;51.972;5.682;2022-10-26T11:28:19;5.82;;;3.40;;
75216;SDS011;63800;51.972;5.682;2022-10-26T11:30:57;9.02;;;3.97;;
75216;SDS011;63800;51.972;5.682;2022-10-26T11:33:29;5.32;;;3.70;;
75216;SDS011;63800;51.972;5.682;2022-10-26T11:36:07;5.65;;;3.90;;
75216;SDS011;63800;51.972;5.682;2022-10-26T11:41:27;7.95;;;3.90;;
75216;SDS011;63800;51.972;5.682;2022-10-26T11:44:02;13.60;;;4.35;;
75216;SDS011;63800;51.972;5.682;2022-10-26T11:46:37;10.82;;;4.70;;
75216;SDS011;63800;51.972;5.682;2022-10-26T11:55:07;7.90;;;4.32;;
75216;SDS011;63800;51.972;5.682;2022-10-26T11:57:26;8.50;;;5.20;;
75216;SDS011;63800;51.972;5.682;2022-10-26T11:59:54;5.90;;;4.70;;
75216;SDS011;63800;51.972;5.682;2022-10-26T12:02:23;5.90;;;4.40;;
75216;SDS011;63800;51.972;5.682;2022-10-26T12:05:01;7.30;;;4.18;;
75216;SDS011;63800;51.972;5.682;2022-10-26T12:07:37;10.85;;;4.25;;
75216;SDS011;63800;51.972;5.682;2022-10-26T12:10:09;10.13;;;4.57;;
75216;SDS011;63800;51.972;5.682;2022-10-26T12:15:43;7.65;;;4.53;;
75216;SDS011;63800;51.972;5.682;2022-10-26T12:18:20;6.38;;;4.22;;
75216;SDS011;63800;51.972;5.682;2022-10-26T12:23:29;11.20;;;4.00;;
75216;SDS011;63800;51.972;5.682;2022-10-26T12:34:04;6.10;;;4.75;;
75216;SDS011;63800;51.972;5.682;2022-10-26T12:39:30;6.72;;;5.20;;
75216;SDS011;63800;51.972;5.682;2022-10-26T12:47:00;9.60;;;5.15;;
75216;SDS011;63800;51.972;5.682;2022-10-26T13:06:13;7.78;;;5.07;;
75216;SDS011;63800;51.972;5.682;2022-10-26T13:08:53;5.78;;;4.80;;
75216;SDS011;63800;51.972;5.682;2022-10-26T13:11:27;6.57;;;4.85;;
75216;SDS011;63800;51.972;5.682;2022-10-26T13:14:02;4.53;;;4.13;;
75216;SDS011;63800;51.972;5.682;2022-10-26T13:16:30;6.10;;;4.57;;
75216;SDS011;63800;51.972;5.682;2022-10-26T13:18:56;6.03;;;3.90;;
75216;SDS011;63800;51.972;5.682;2022-10-26T13:21:22;7.90;;;4.43;;
75216;SDS011;63800;51.972;5.682;2022-10-26T13:26:18;6.13;;;4.70;;
75216;SDS011;63800;51.972;5.682;2022-10-26T13:28:47;5.22;;;3.72;;
75216;SDS011;63800;51.972;5.682;2022-10-26T13:34:35;5.53;;;4.70;;
75216;SDS011;63800;51.972;5.682;2022-10-26T13:39:34;7.05;;;5.97;;
75216;SDS011;63800;51.972;5.682;2022-10-26T13:42:02;6.78;;;5.22;;
75216;SDS011;63800;51.972;5.682;2022-10-26T13:44:38;6.72;;;6.03;;
75216;SDS011;63800;51.972;5.682;2022-10-26T13:47:12;7.93;;;5.85;;
75216;SDS011;63800;51.972;5.682;2022-10-26T13:49:44;6.90;;;6.20;;
75216;SDS011;63800;51.972;5.682;2022-10-26T13:52:16;7.43;;;6.45;;
75216;SDS011;63800;51.972;5.682;2022-10-26T13:54:48;8.60;;;7.00;;
75216;SDS011;63800;51.972;5.682;2022-10-26T13:57:26;7.87;;;6.33;;
75216;SDS011;63800;51.972;5.682;2022-10-26T13:59:56;9.63;;;7.63;;
75216;SDS011;63800;51.972;5.682;2022-10-26T14:02:24;12.25;;;7.00;;
75216;SDS011;63800;51.972;5.682;2022-10-26T14:04:52;9.82;;;7.60;;
75216;SDS011;63800;51.972;5.682;2022-10-26T14:07:38;11.05;;;6.80;;
75216;SDS011;63800;51.972;5.682;2022-10-26T14:10:06;7.35;;;6.47;;
75216;SDS011;63800;51.972;5.682;2022-10-26T14:12:58;8.95;;;6.75;;
75216;SDS011;63800;51.972;5.682;2022-10-26T14:15:26;6.65;;;5.50;;
75216;SDS011;63800;51.972;5.682;2022-10-26T14:17:55;7.78;;;6.18;;
75216;SDS011;63800;51.972;5.682;2022-10-26T14:20:23;7.28;;;5.75;;
75216;SDS011;63800;51.972;5.682;2022-10-26T14:22:51;8.43;;;5.40;;
75216;SDS011;63800;51.972;5.682;2022-10-26T14:25:18;7.80;;;5.30;;
75216;SDS011;63800;51.972;5.682;2022-10-26T14:27:46;8.73;;;5.07;;
75216;SDS011;63800;51.972;5.682;2022-10-26T14:30:23;7.47;;;4.68;;
75216;SDS011;63800;51.972;5.682;2022-10-26T14:32:52;7.15;;;5.22;;
75216;SDS011;63800;51.972;5.682;2022-10-26T14:35:18;7.40;;;5.07;;
75216;SDS011;63800;51.972;5.682;2022-10-26T14:38:01;6.22;;;4.53;;
75216;SDS011;63800;51.972;5.682;2022-10-26T14:40:30;8.30;;;5.18;;
75216;SDS011;63800;51.972;5.682;2022-10-26T14:43:00;6.63;;;4.35;;
75216;SDS011;63800;51.972;5.682;2022-10-26T14:45:31;7.40;;;4.50;;
75216;SDS011;63800;51.972;5.682;2022-10-26T14:47:58;7.93;;;4.57;;
75216;SDS011;63800;51.972;5.682;2022-10-26T14:50:25;6.38;;;4.82;;
75216;SDS011;63800;51.972;5.682;2022-10-26T14:52:56;7.22;;;4.68;;
75216;SDS011;63800;51.972;5.682;2022-10-26T14:55:25;8.30;;;3.90;;
75216;SDS011;63800;51.972;5.682;2022-10-26T14:57:52;9.20;;;4.15;;
75216;SDS011;63800;51.972;5.682;2022-10-26T15:00:32;6.13;;;4.47;;
75216;SDS011;63800;51.972;5.682;2022-10-26T15:02:58;6.22;;;4.07;;
75216;SDS011;63800;51.972;5.682;2022-10-26T15:05:24;10.05;;;4.65;;
75216;SDS011;63800;51.972;5.682;2022-10-26T15:07:53;4.32;;;3.38;;
75216;SDS011;63800;51.972;5.682;2022-10-26T15:15:53;5.70;;;3.17;;
75216;SDS011;63800;51.972;5.682;2022-10-26T15:18:24;5.18;;;3.53;;
75216;SDS011;63800;51.972;5.682;2022-10-26T15:20:52;6.07;;;3.37;;
75216;SDS011;63800;51.972;5.682;2022-10-26T15:23:18;7.78;;;3.10;;
75216;SDS011;63800;51.972;5.682;2022-10-26T15:25:52;4.70;;;2.50;;
75216;SDS011;63800;51.972;5.682;2022-10-26T15:31:07;6.20;;;2.65;;
75216;SDS011;63800;51.972;5.682;2022-10-26T15:36:21;4.38;;;2.50;;
75216;SDS011;63800;51.972;5.682;2022-10-26T15:38:48;4.20;;;2.33;;
75216;SDS011;63800;51.972;5.682;2022-10-26T15:43:58;4.47;;;2.47;;
75216;SDS011;63800;51.972;5.682;2022-10-26T15:46:29;6.38;;;2.50;;
75216;SDS011;63800;51.972;5.682;2022-10-26T15:51:26;5.18;;;2.45;;
75216;SDS011;63800;51.972;5.682;2022-10-26T15:53:54;7.07;;;3.40;;
75216;SDS011;63800;51.972;5.682;2022-10-26T15:56:22;5.30;;;2.97;;
75216;SDS011;63800;51.972;5.682;2022-10-26T15:58:48;5.72;;;2.80;;
75216;SDS011;63800;51.972;5.682;2022-10-26T16:01:21;3.90;;;2.83;;
75216;SDS011;63800;51.972;5.682;2022-10-26T16:03:48;6.82;;;2.95;;
75216;SDS011;63800;51.972;5.682;2022-10-26T16:06:23;4.97;;;2.30;;
75216;SDS011;63800;51.972;5.682;2022-10-26T16:08:52;3.55;;;2.25;;
75216;SDS011;63800;51.972;5.682;2022-10-26T16:11:20;7.18;;;2.83;;
75216;SDS011;63800;51.972;5.682;2022-10-26T16:13:46;5.38;;;2.72;;
75216;SDS011;63800;51.972;5.682;2022-10-26T16:16:12;4.75;;;2.92;;
75216;SDS011;63800;51.972;5.682;2022-10-26T16:18:39;6.70;;;2.67;;
75216;SDS011;63800;51.972;5.682;2022-10-26T16:21:05;6.00;;;3.03;;
75216;SDS011;63800;51.972;5.682;2022-10-26T16:23:30;5.97;;;3.15;;
75216;SDS011;63800;51.972;5.682;2022-10-26T16:25:56;6.18;;;3.60;;
75216;SDS011;63800;51.972;5.682;2022-10-26T16:28:21;10.27;;;3.85;;
75216;SDS011;63800;51.972;5.682;2022-10-26T16:30:47;8.50;;;3.55;;
75216;SDS011;63800;51.972;5.682;2022-10-26T16:33:12;6.70;;;3.45;;
75216;SDS011;63800;51.972;5.682;2022-10-26T16:35:38;6.45;;;3.72;;
75216;SDS011;63800;51.972;5.682;2022-10-26T16:38:03;6.00;;;3.55;;
75216;SDS011;63800;51.972;5.682;2022-10-26T16:40:29;7.22;;;3.40;;
75216;SDS011;63800;51.972;5.682;2022-10-26T16:42:54;10.90;;;3.63;;
75216;SDS011;63800;51.972;5.682;2022-10-26T16:45:20;5.40;;;2.60;;
75216;SDS011;63800;51.972;5.682;2022-10-26T16:47:45;8.10;;;3.17;;
75216;SDS011;63800;51.972;5.682;2022-10-26T16:50:11;4.13;;;2.70;;
75216;SDS011;63800;51.972;5.682;2022-10-26T16:52:37;8.23;;;3.17;;
75216;SDS011;63800;51.972;5.682;2022-10-26T16:55:03;4.22;;;2.42;;
75216;SDS011;63800;51.972;5.682;2022-10-26T16:57:30;7.80;;;3.75;;
75216;SDS011;63800;51.972;5.682;2022-10-26T16:59:55;5.45;;;3.55;;
75216;SDS011;63800;51.972;5.682;2022-10-26T17:02:21;7.35;;;3.67;;
75216;SDS011;63800;51.972;5.682;2022-10-26T17:04:47;4.68;;;3.25;;
75216;SDS011;63800;51.972;5.682;2022-10-26T17:07:12;6.65;;;3.28;;
75216;SDS011;63800;51.972;5.682;2022-10-26T17:09:38;5.20;;;3.50;;
75216;SDS011;63800;51.972;5.682;2022-10-26T17:12:03;5.18;;;2.80;;
75216;SDS011;63800;51.972;5.682;2022-10-26T17:14:29;9.85;;;3.28;;
75216;SDS011;63800;51.972;5.682;2022-10-26T17:16:55;4.60;;;2.85;;
75216;SDS011;63800;51.972;5.682;2022-10-26T17:19:21;9.63;;;3.72;;
75216;SDS011;63800;51.972;5.682;2022-10-26T17:21:46;8.23;;;2.92;;
75216;SDS011;63800;51.972;5.682;2022-10-26T17:24:12;5.30;;;3.10;;
75216;SDS011;63800;51.972;5.682;2022-10-26T17:26:38;7.95;;;3.00;;
75216;SDS011;63800;51.972;5.682;2022-10-26T17:29:03;5.00;;;3.13;;
75216;SDS011;63800;51.972;5.682;2022-10-26T17:31:29;6.38;;;2.90;;
75216;SDS011;63800;51.972;5.682;2022-10-26T17:33:55;4.18;;;3.08;;
75216;SDS011;63800;51.972;5.682;2022-10-26T17:36:21;8.90;;;3.80;;
75216;SDS011;63800;51.972;5.682;2022-10-26T17:38:49;9.60;;;4.20;;
75216;SDS011;63800;51.972;5.682;2022-10-26T17:41:17;8.35;;;4.22;;